createdAt,value
2023-05-14T00:04:34.289Z,1600
2023-05-14T00:09:52.429Z,1606
2023-05-14T00:15:10.585Z,1621
2023-05-14T00:20:28.679Z,1666
2023-05-14T00:25:47.027Z,1696
2023-05-14T00:30:49.924Z,1747
2023-05-14T00:36:08.209Z,1775
2023-05-14T00:41:26.789Z,1809
2023-05-14T00:46:44.957Z,1830
2023-05-14T00:52:03.583Z,1852
2023-05-14T00:57:21.721Z,1869
2023-05-14T01:02:40.159Z,1869
2023-05-14T01:07:58.689Z,1894
2023-05-14T01:13:16.844Z,1898
2023-05-14T01:18:35.248Z,1893
2023-05-14T01:23:53.804Z,1886
2023-05-14T01:29:12.341Z,1925
2023-05-14T01:34:30.517Z,1941
2023-05-14T01:39:48.901Z,1949
2023-05-14T01:45:07.318Z,1949
2023-05-14T01:50:25.719Z,1929
2023-05-14T01:55:44.357Z,1908
2023-05-14T02:01:02.733Z,1902
2023-05-14T02:06:20.966Z,1912
2023-05-14T02:11:39.141Z,1898
2023-05-14T02:16:57.470Z,1893
2023-05-14T02:22:15.591Z,1877
2023-05-14T02:27:33.968Z,1858
2023-05-14T02:32:52.316Z,1838
2023-05-14T02:38:11.090Z,1815
2023-05-14T02:43:29.646Z,1799
2023-05-14T02:48:47.991Z,1774
2023-05-14T02:54:06.143Z,1767
2023-05-14T02:59:24.741Z,1816
2023-05-14T03:04:44.519Z,1852
2023-05-14T03:10:03.079Z,1867
2023-05-14T03:15:21.444Z,1852
2023-05-14T03:20:39.604Z,1799
2023-05-14T03:25:42.303Z,1781
2023-05-14T03:31:01.077Z,1743
2023-05-14T03:36:19.673Z,1720
2023-05-14T03:41:37.624Z,1717
2023-05-14T03:46:55.924Z,1713
2023-05-14T03:52:14.134Z,1697
2023-05-14T03:57:32.480Z,1658
2023-05-14T04:02:50.916Z,1680
2023-05-14T04:08:09.310Z,1666
2023-05-14T04:13:27.677Z,1663
2023-05-14T04:18:46.096Z,1649
2023-05-14T04:24:04.371Z,1663
2023-05-14T04:29:22.915Z,1634
2023-05-14T04:34:40.929Z,1640
2023-05-14T04:39:59.329Z,1671
2023-05-14T04:45:17.498Z,1690
2023-05-14T04:50:35.947Z,1684
2023-05-14T04:55:54.266Z,1681
2023-05-14T05:01:12.592Z,1675
2023-05-14T05:06:31.251Z,1679
2023-05-14T05:11:49.381Z,1683
2023-05-14T05:17:07.497Z,1685
2023-05-14T05:22:25.956Z,1668
2023-05-14T05:27:44.410Z,1640
2023-05-14T05:33:02.583Z,1620
2023-05-14T05:38:21.312Z,1624
2023-05-14T05:43:39.678Z,1615
2023-05-14T05:48:58.025Z,1601
2023-05-14T05:54:16.695Z,1615
2023-05-14T05:59:34.999Z,1630
2023-05-14T06:04:53.716Z,1656
2023-05-14T06:10:12.040Z,1663
2023-05-14T06:15:30.176Z,1684
2023-05-14T06:20:48.493Z,1672
2023-05-14T06:26:07.061Z,1687
2023-05-14T06:31:25.423Z,1671
2023-05-14T06:36:43.668Z,1632
2023-05-14T06:42:01.870Z,1633
2023-05-14T06:47:20.455Z,1621
2023-05-14T06:52:38.619Z,1633
2023-05-14T06:57:57.202Z,1559
2023-05-14T07:03:15.716Z,1577
2023-05-14T07:08:34.078Z,1584
2023-05-14T07:13:52.509Z,1598
2023-05-14T07:19:10.534Z,1477
2023-05-14T07:24:29.097Z,1417
2023-05-14T07:29:47.549Z,1349
2023-05-14T07:35:05.850Z,1303
2023-05-14T07:40:24.322Z,1271
2023-05-14T07:45:43.610Z,972
2023-05-14T07:51:01.760Z,821
2023-05-14T07:56:20.259Z,595
2023-05-14T08:01:39.541Z,516
2023-05-14T08:06:57.986Z,447
2023-05-14T08:12:16.509Z,440
2023-05-14T08:17:34.736Z,454
2023-05-14T08:22:52.977Z,449
2023-05-14T08:28:11.338Z,430
2023-05-14T08:33:29.612Z,406
2023-05-14T08:38:47.922Z,409
2023-05-14T08:44:06.247Z,394
2023-05-14T08:49:24.623Z,389
2023-05-14T08:54:42.857Z,394
2023-05-14T09:00:01.407Z,382
2023-05-14T09:05:19.873Z,385
2023-05-14T09:10:38.150Z,401
2023-05-14T09:15:56.547Z,457
2023-05-14T09:21:15.126Z,536
2023-05-14T09:26:33.453Z,611
2023-05-14T09:31:51.689Z,658
2023-05-14T09:37:10.447Z,667
2023-05-14T09:42:28.629Z,682
2023-05-14T09:47:46.866Z,709
2023-05-14T09:53:05.447Z,733
2023-05-14T09:58:23.565Z,750
2023-05-14T10:03:26.536Z,779
2023-05-14T10:08:44.806Z,798
2023-05-14T10:14:02.972Z,811
2023-05-14T10:19:21.640Z,829
2023-05-14T10:24:40.396Z,847
2023-05-14T10:29:58.738Z,875
2023-05-14T10:35:17.092Z,895
2023-05-14T10:40:35.357Z,1012
2023-05-14T10:45:53.757Z,1027
2023-05-14T10:51:12.193Z,1047
2023-05-14T10:56:31.066Z,1070
2023-05-14T11:01:49.438Z,1091
2023-05-14T11:07:08.911Z,1116
2023-05-14T11:12:26.958Z,1160
2023-05-14T11:17:45.106Z,894
2023-05-14T11:22:47.954Z,844
2023-05-14T11:28:06.665Z,901
2023-05-14T11:33:24.975Z,970
2023-05-14T11:38:43.274Z,1009
2023-05-14T11:44:01.529Z,1040
2023-05-14T12:33:27.698Z,1219
2023-05-14T12:38:46.592Z,1218
2023-05-14T12:44:04.970Z,1223
2023-05-14T12:49:23.263Z,1252
2023-05-14T12:54:42.876Z,1284
2023-05-14T13:00:01.448Z,1304
2023-05-14T13:05:19.850Z,1329
2023-05-14T13:10:38.195Z,1340
2023-05-14T13:15:56.774Z,1355
2023-05-14T13:21:15.203Z,1375
2023-05-14T13:26:33.615Z,1389
2023-05-14T13:31:51.941Z,1402
2023-05-14T13:37:10.337Z,1436
2023-05-14T13:42:28.831Z,1466
2023-05-14T13:47:48.736Z,1490
2023-05-14T13:53:09.566Z,1501
2023-05-14T13:58:28.121Z,1509
2023-05-14T14:03:46.732Z,1514
2023-05-14T14:09:05.262Z,1523
2023-05-14T14:14:25.037Z,1554
2023-05-14T14:19:43.606Z,1602
2023-05-14T14:25:01.823Z,1617
2023-05-14T14:30:19.994Z,1583
2023-05-14T14:35:38.354Z,1563
2023-05-14T14:40:56.933Z,1534
2023-05-14T14:46:15.352Z,1508
2023-05-14T14:51:33.582Z,1496
2023-05-14T14:56:51.725Z,1517
2023-05-14T15:02:10.339Z,1520
2023-05-14T15:07:28.558Z,1538
2023-05-14T15:12:47.134Z,1529
2023-05-14T15:18:05.259Z,1534
2023-05-14T15:23:23.637Z,1523
2023-05-14T15:28:41.847Z,1486
2023-05-14T15:34:00.015Z,1448
2023-05-14T15:39:18.548Z,1415
2023-05-14T15:44:38.809Z,1400
2023-05-14T15:49:57.220Z,1391
2023-05-14T15:55:15.338Z,1384
2023-05-14T16:00:33.572Z,1353
2023-05-14T16:05:51.896Z,1346
2023-05-14T16:11:10.710Z,1333
2023-05-14T16:16:32.116Z,1308
2023-05-14T16:21:50.468Z,1282
2023-05-14T16:27:08.605Z,1253
2023-05-14T16:32:27.193Z,1232
2023-05-14T16:37:45.326Z,1209
2023-05-14T16:43:03.604Z,1190
2023-05-14T16:48:22.240Z,1187
2023-05-14T16:53:40.761Z,1180
2023-05-14T16:58:59.508Z,1167
2023-05-14T17:04:18.082Z,1154
2023-05-14T17:09:36.744Z,1210
2023-05-14T17:14:55.119Z,1276
2023-05-14T17:20:19.165Z,1268
2023-05-14T17:25:37.569Z,1251
2023-05-14T17:30:56.143Z,1244
2023-05-14T17:36:14.407Z,1245
2023-05-14T17:41:32.980Z,1229
2023-05-14T17:46:51.592Z,1233
2023-05-14T17:52:10.090Z,1244
2023-05-14T17:57:28.501Z,1250
2023-05-14T18:02:46.678Z,1252
2023-05-14T18:08:05.318Z,1269
2023-05-14T18:13:23.734Z,1293
2023-05-14T18:18:42.287Z,1321
2023-05-14T18:24:00.669Z,1325
2023-05-14T18:29:18.663Z,1315
2023-05-14T18:34:37.245Z,1074
2023-05-14T18:39:55.637Z,1144
2023-05-14T18:45:14.070Z,1171
2023-05-14T18:50:32.448Z,1183
2023-05-14T18:55:35.264Z,1190
2023-05-14T19:00:53.716Z,1194
2023-05-14T19:06:12.042Z,1205
2023-05-14T19:11:30.055Z,1205
2023-05-14T19:16:47.984Z,1221
2023-05-14T19:22:06.385Z,1239
2023-05-14T19:27:25.146Z,1256
2023-05-14T19:32:43.353Z,1266
2023-05-14T19:38:02.828Z,1279
2023-05-14T19:43:21.535Z,1288
2023-05-14T19:48:39.909Z,1310
2023-05-14T19:54:01.016Z,1330
2023-05-14T19:59:19.763Z,1335
2023-05-14T20:04:37.919Z,1350
2023-05-14T20:09:56.160Z,1365
2023-05-14T20:15:14.316Z,1422
2023-05-14T20:20:33.517Z,1475
2023-05-14T20:25:52.001Z,1501
2023-05-14T20:31:10.569Z,1507
2023-05-14T20:36:28.883Z,1541
2023-05-14T20:41:47.388Z,1570
2023-05-14T20:47:05.894Z,1624
2023-05-14T20:52:24.278Z,1652
2023-05-14T20:57:43.440Z,1682
2023-05-14T21:03:02.054Z,1687
2023-05-14T21:08:20.865Z,1692
2023-05-14T21:13:38.976Z,1712
2023-05-14T21:18:57.385Z,1742
2023-05-14T21:24:15.560Z,1739
2023-05-14T21:29:33.894Z,1689
2023-05-14T21:34:52.442Z,1669
2023-05-14T21:40:10.620Z,1662
2023-05-14T21:45:29.501Z,1663
2023-05-14T21:50:48.020Z,1661
2023-05-14T21:56:06.637Z,1662
2023-05-14T22:01:25.001Z,1663
2023-05-14T22:06:43.257Z,1662
2023-05-14T22:12:01.835Z,1663
2023-05-14T22:17:20.182Z,1668
2023-05-14T22:22:39.023Z,1669
2023-05-14T22:27:57.230Z,1671
2023-05-14T22:33:15.762Z,1675
2023-05-14T22:38:33.996Z,1690
2023-05-14T22:43:52.024Z,1706
2023-05-14T22:49:10.416Z,1718
2023-05-14T22:54:28.405Z,1713
2023-05-14T22:59:46.631Z,1721
2023-05-14T23:05:04.751Z,1717
2023-05-14T23:10:23.144Z,1711
2023-05-14T23:15:41.480Z,1713
2023-05-14T23:21:00.171Z,1719
2023-05-14T23:26:18.856Z,1751
2023-05-14T23:31:37.012Z,1768
2023-05-14T23:36:55.040Z,1751
2023-05-14T23:42:13.276Z,1753
2023-05-14T23:47:31.381Z,1762
2023-05-14T23:52:49.862Z,1766
2023-05-14T23:58:08.250Z,1775
